createdAt,value
2018-05-16T00:00:06.349Z,24.53
2018-05-16T00:02:32.948Z,24.40
2018-05-16T00:04:59.542Z,23.87
2018-05-16T00:07:26.244Z,24.53
2018-05-16T00:09:53.440Z,25.15
2018-05-16T00:12:19.892Z,24.33
2018-05-16T00:14:46.579Z,23.75
2018-05-16T00:17:13.219Z,24.63
2018-05-16T00:19:39.921Z,23.80
2018-05-16T00:22:06.891Z,23.75
2018-05-16T00:24:33.508Z,24.10
2018-05-16T00:27:01.201Z,23.60
2018-05-16T00:29:27.738Z,23.87
2018-05-16T00:31:55.093Z,22.80
2018-05-16T00:34:22.479Z,24.00
2018-05-16T00:36:49.679Z,24.55
2018-05-16T00:39:16.189Z,25.55
2018-05-16T00:41:43.617Z,25.02
2018-05-16T00:44:10.049Z,26.20
2018-05-16T00:46:36.521Z,26.62
2018-05-16T00:49:03.752Z,26.48
2018-05-16T00:51:31.419Z,26.98
2018-05-16T00:53:58.687Z,27.47
2018-05-16T00:56:25.217Z,27.30
2018-05-16T00:58:51.781Z,26.23
2018-05-16T01:01:18.239Z,27.10
2018-05-16T01:03:44.730Z,25.83
2018-05-16T01:06:11.160Z,27.37
2018-05-16T01:08:37.630Z,27.10
2018-05-16T01:11:05.848Z,26.85
2018-05-16T01:13:33.068Z,27.87
2018-05-16T01:16:00.519Z,26.83
2018-05-16T01:18:27.819Z,27.67
2018-05-16T01:20:54.279Z,27.02
2018-05-16T01:23:20.839Z,27.85
2018-05-16T01:25:47.289Z,27.58
2018-05-16T01:28:14.181Z,27.23
2018-05-16T01:30:41.001Z,26.60
2018-05-16T01:33:07.480Z,27.27
2018-05-16T01:35:34.736Z,26.30
2018-05-16T01:38:01.314Z,27.15
2018-05-16T01:40:27.943Z,27.10
2018-05-16T01:42:55.500Z,26.83
2018-05-16T01:45:23.075Z,26.37
2018-05-16T01:47:49.712Z,26.90
2018-05-16T01:50:16.446Z,27.80
2018-05-16T01:52:43.673Z,26.90
2018-05-16T01:55:10.070Z,26.93
2018-05-16T01:57:36.666Z,26.80
2018-05-16T02:00:03.348Z,26.67
2018-05-16T02:02:31.424Z,28.42
2018-05-16T02:04:58.171Z,27.55
2018-05-16T02:07:24.897Z,28.08
2018-05-16T02:09:52.238Z,29.23
2018-05-16T02:12:18.800Z,28.00
2018-05-16T02:14:46.016Z,28.58
2018-05-16T02:17:12.429Z,26.77
2018-05-16T02:19:38.857Z,28.60
2018-05-16T02:22:05.607Z,28.33
2018-05-16T02:24:32.013Z,28.92
2018-05-16T02:26:58.699Z,28.90
2018-05-16T02:29:26.175Z,28.70
2018-05-16T02:31:52.582Z,28.73
2018-05-16T02:34:19.355Z,28.67
2018-05-16T02:36:45.987Z,28.70
2018-05-16T02:39:12.437Z,29.35
2018-05-16T02:41:39.714Z,29.48
2018-05-16T02:44:06.417Z,29.95
2018-05-16T02:46:33.733Z,29.75
2018-05-16T02:49:01.164Z,29.27
2018-05-16T02:51:27.674Z,31.33
2018-05-16T02:53:54.522Z,31.83
2018-05-16T02:56:21.070Z,30.37
2018-05-16T02:58:48.214Z,30.62
2018-05-16T03:01:15.892Z,30.00
2018-05-16T03:03:42.471Z,30.77
2018-05-16T03:06:09.798Z,29.20
2018-05-16T03:08:36.358Z,30.40
2018-05-16T03:11:04.561Z,29.77
2018-05-16T03:13:31.339Z,30.33
2018-05-16T03:15:57.777Z,31.35
2018-05-16T03:18:24.517Z,32.63
2018-05-16T03:20:51.197Z,33.03
2018-05-16T03:23:17.993Z,32.15
2018-05-16T03:25:44.443Z,33.90
2018-05-16T03:28:10.901Z,35.63
2018-05-16T03:30:38.003Z,33.28
2018-05-16T03:33:05.347Z,35.53
2018-05-16T03:35:31.802Z,37.28
2018-05-16T03:37:58.396Z,35.40
2018-05-16T03:40:25.722Z,35.50
2018-05-16T03:42:52.268Z,35.15
2018-05-16T03:45:19.266Z,35.25
2018-05-16T03:47:45.947Z,35.95
2018-05-16T03:50:13.000Z,33.90
2018-05-16T03:52:39.708Z,33.08
2018-05-16T03:55:06.191Z,32.05
2018-05-16T03:57:45.094Z,32.85
2018-05-16T04:00:23.832Z,33.88
2018-05-16T04:03:02.915Z,32.13
2018-05-16T04:05:29.689Z,33.15
2018-05-16T04:07:56.319Z,31.20
2018-05-16T04:10:22.811Z,30.85
2018-05-16T04:12:49.267Z,31.45
2018-05-16T04:15:16.339Z,32.63
2018-05-16T04:17:43.058Z,33.97
2018-05-16T04:20:10.638Z,34.05
2018-05-16T04:22:37.283Z,31.05
2018-05-16T04:25:04.107Z,32.33
2018-05-16T04:27:30.623Z,33.40
2018-05-16T04:29:57.313Z,32.33
2018-05-16T04:32:23.848Z,35.10
2018-05-16T04:34:50.399Z,32.10
2018-05-16T04:37:17.677Z,32.67
2018-05-16T04:39:44.444Z,32.63
2018-05-16T04:42:10.997Z,32.97
2018-05-16T04:44:37.599Z,34.95
2018-05-16T04:47:05.650Z,33.22
2018-05-16T04:49:32.156Z,31.60
2018-05-16T04:51:58.632Z,32.85
2018-05-16T04:54:26.173Z,33.53
2018-05-16T04:56:52.945Z,33.97
2018-05-16T04:59:19.449Z,33.25
2018-05-16T05:01:46.228Z,33.88
2018-05-16T05:04:13.425Z,33.58
2018-05-16T05:06:39.969Z,33.30
2018-05-16T05:09:06.463Z,34.00
2018-05-16T05:11:32.919Z,34.53
2018-05-16T05:14:00.219Z,33.05
2018-05-16T05:16:27.139Z,33.28
2018-05-16T05:18:53.755Z,31.80
2018-05-16T05:21:20.337Z,30.33
2018-05-16T05:23:47.197Z,30.25
2018-05-16T05:26:13.897Z,30.92
2018-05-16T05:28:40.595Z,30.23
2018-05-16T05:31:08.100Z,29.17
2018-05-16T05:33:34.661Z,27.33
2018-05-16T05:36:02.217Z,23.90
2018-05-16T05:38:28.900Z,22.35
2018-05-16T05:40:56.275Z,29.08
2018-05-16T05:43:23.086Z,27.37
2018-05-16T05:45:50.777Z,22.95
2018-05-16T05:48:17.489Z,23.20
2018-05-16T05:50:44.380Z,20.95
2018-05-16T05:53:10.866Z,27.00
2018-05-16T05:55:37.441Z,25.70
2018-05-16T05:58:03.941Z,28.87
2018-05-16T06:00:30.391Z,27.13
2018-05-16T06:02:56.802Z,23.62
2018-05-16T06:05:24.238Z,29.10
2018-05-16T06:07:50.755Z,25.45
2018-05-16T06:10:18.183Z,22.60
2018-05-16T06:12:44.676Z,20.35
2018-05-16T06:15:11.268Z,29.45
2018-05-16T06:17:37.694Z,22.95
2018-05-16T06:20:05.052Z,18.52
2018-05-16T06:22:31.840Z,15.80
2018-05-16T06:24:58.445Z,29.25
2018-05-16T06:27:26.027Z,20.35
2018-05-16T06:29:53.613Z,19.05
2018-05-16T06:32:20.348Z,15.43
2018-05-16T06:34:47.032Z,17.42
2018-05-16T06:37:13.470Z,14.05
2018-05-16T06:39:40.123Z,12.52
2018-05-16T06:42:06.685Z,12.48
2018-05-16T06:44:33.131Z,15.02
2018-05-16T06:46:59.942Z,17.33
2018-05-16T06:49:26.884Z,13.40
2018-05-16T06:51:53.300Z,15.30
2018-05-16T06:54:19.899Z,16.12
2018-05-16T06:56:46.583Z,17.60
2018-05-16T06:59:13.456Z,17.40
2018-05-16T07:01:40.178Z,19.40
2018-05-16T07:04:07.193Z,19.60
2018-05-16T07:06:34.333Z,20.25
2018-05-16T07:09:00.878Z,19.73
2018-05-16T07:11:27.810Z,18.75
2018-05-16T07:13:54.401Z,20.85
2018-05-16T07:16:20.862Z,18.65
2018-05-16T07:18:47.626Z,19.60
2018-05-16T07:21:14.064Z,19.92
2018-05-16T07:23:42.283Z,16.30
2018-05-16T07:26:08.933Z,16.70
2018-05-16T07:28:35.538Z,15.30
2018-05-16T07:31:01.976Z,15.48
2018-05-16T07:33:28.614Z,14.13
2018-05-16T07:35:57.143Z,14.80
2018-05-16T07:38:23.904Z,14.20
2018-05-16T07:40:50.367Z,13.48
2018-05-16T07:43:18.439Z,11.70
2018-05-16T07:45:45.111Z,11.98
2018-05-16T07:48:11.643Z,10.50
2018-05-16T07:50:38.685Z,10.27
2018-05-16T07:53:05.265Z,12.07
2018-05-16T07:55:31.808Z,9.90
2018-05-16T07:57:59.104Z,11.57
2018-05-16T08:00:26.745Z,10.20
2018-05-16T08:02:53.321Z,9.52
2018-05-16T08:05:20.622Z,9.20
2018-05-16T08:07:48.056Z,8.70
2018-05-16T08:10:14.862Z,9.50
2018-05-16T08:12:41.641Z,8.70
2018-05-16T08:15:08.622Z,9.40
2018-05-16T08:17:36.559Z,9.80
2018-05-16T08:20:04.096Z,10.75
2018-05-16T08:22:30.724Z,12.30
2018-05-16T08:24:57.194Z,11.90
2018-05-16T08:27:24.602Z,12.18
2018-05-16T08:29:52.655Z,12.50
2018-05-16T08:32:19.423Z,14.10
2018-05-16T08:34:46.831Z,14.90
2018-05-16T08:37:13.238Z,13.70
2018-05-16T08:39:40.002Z,14.47
2018-05-16T08:42:06.719Z,16.00
2018-05-16T08:44:34.909Z,35.38
2018-05-16T08:47:01.479Z,23.25
2018-05-16T08:49:27.905Z,22.95
2018-05-16T08:51:54.441Z,27.27
2018-05-16T08:54:21.102Z,27.60
2018-05-16T08:56:48.142Z,31.55
2018-05-16T08:59:15.889Z,29.02
2018-05-16T09:01:42.451Z,26.08
2018-05-16T09:04:09.418Z,26.30
2018-05-16T09:06:36.137Z,25.58
2018-05-16T09:09:02.740Z,26.00
2018-05-16T09:11:29.576Z,23.30
2018-05-16T09:13:57.164Z,25.23
2018-05-16T09:16:24.156Z,23.70
2018-05-16T09:18:51.146Z,27.10
2018-05-16T09:21:17.884Z,23.92
2018-05-16T09:23:44.799Z,21.95
2018-05-16T09:26:12.590Z,22.00
2018-05-16T09:28:40.811Z,22.05
2018-05-16T09:31:07.394Z,24.92
2018-05-16T09:33:34.044Z,27.08
2018-05-16T09:36:00.589Z,25.40
2018-05-16T09:38:27.135Z,24.33
2018-05-16T09:40:54.409Z,22.48
2018-05-16T09:43:22.805Z,22.08
2018-05-16T09:45:49.920Z,22.55
2018-05-16T09:48:16.436Z,22.65
2018-05-16T09:50:43.679Z,24.25
2018-05-16T09:53:10.266Z,24.37
2018-05-16T09:55:36.828Z,24.40
2018-05-16T09:58:03.485Z,25.62
2018-05-16T10:00:30.147Z,28.08
2018-05-16T10:02:57.425Z,28.17
2018-05-16T10:05:23.898Z,30.25
2018-05-16T10:07:50.551Z,38.92
2018-05-16T10:10:17.024Z,40.78
2018-05-16T10:12:44.684Z,34.42
2018-05-16T10:15:12.059Z,33.92
2018-05-16T10:17:39.026Z,31.98
2018-05-16T10:20:05.636Z,32.40
2018-05-16T10:22:32.091Z,32.80
2018-05-16T10:24:59.109Z,33.45
2018-05-16T10:27:26.371Z,33.30
2018-05-16T10:29:52.944Z,32.40
2018-05-16T10:32:19.605Z,33.55
2018-05-16T10:34:47.016Z,33.45
2018-05-16T10:37:13.594Z,33.20
2018-05-16T10:39:40.817Z,34.90
2018-05-16T10:42:07.581Z,34.42
2018-05-16T10:44:34.853Z,34.50
2018-05-16T10:47:01.617Z,34.40
2018-05-16T10:49:29.819Z,35.08
2018-05-16T10:51:56.572Z,34.08
2018-05-16T10:54:23.046Z,36.15
2018-05-16T10:56:49.518Z,34.35
2018-05-16T10:59:18.395Z,35.67
2018-05-16T11:01:45.773Z,35.05
2018-05-16T11:04:12.743Z,36.33
2018-05-16T11:06:39.401Z,36.35
2018-05-16T11:09:06.374Z,35.30
2018-05-16T11:11:32.973Z,36.58
2018-05-16T11:13:59.474Z,34.20
2018-05-16T11:16:26.680Z,34.60
2018-05-16T11:18:55.350Z,35.30
2018-05-16T11:21:21.826Z,34.70
2018-05-16T11:23:48.303Z,35.60
2018-05-16T11:26:14.839Z,34.03
2018-05-16T11:28:41.394Z,57.38
2018-05-16T11:31:07.862Z,36.88
2018-05-16T11:33:34.277Z,34.28
2018-05-16T11:36:00.759Z,34.40
2018-05-16T11:38:27.955Z,34.17
2018-05-16T11:40:54.409Z,34.78
2018-05-16T11:43:21.313Z,35.15
2018-05-16T11:45:48.408Z,34.92
2018-05-16T11:48:16.371Z,35.00
2018-05-16T11:50:42.879Z,36.00
2018-05-16T11:53:09.314Z,37.05
2018-05-16T11:55:36.434Z,36.25
2018-05-16T11:58:02.894Z,37.75
2018-05-16T12:00:29.391Z,37.47
2018-05-16T12:02:55.955Z,36.88
2018-05-16T12:05:22.368Z,37.35
2018-05-16T12:07:48.804Z,37.65
2018-05-16T12:10:15.345Z,37.60
2018-05-16T12:12:41.904Z,38.45
2018-05-16T12:15:09.082Z,38.42
2018-05-16T12:17:35.734Z,37.70
2018-05-16T12:20:03.868Z,37.65
2018-05-16T12:22:30.387Z,38.63
2018-05-16T12:24:56.945Z,38.75
2018-05-16T12:27:24.323Z,42.65
2018-05-16T12:29:50.796Z,40.30
2018-05-16T12:32:18.947Z,41.53
2018-05-16T12:34:46.251Z,48.45
2018-05-16T12:37:12.807Z,41.80
2018-05-16T12:39:40.127Z,40.65
2018-05-16T12:42:08.379Z,40.12
2018-05-16T12:44:34.876Z,39.83
2018-05-16T12:47:01.386Z,41.13
2018-05-16T12:49:28.541Z,39.70
2018-05-16T12:51:55.767Z,38.92
2018-05-16T12:54:22.219Z,40.13
2018-05-16T12:56:48.681Z,39.03
2018-05-16T12:59:15.312Z,39.80
2018-05-16T13:01:41.797Z,47.22
2018-05-16T13:04:08.227Z,43.35
2018-05-16T13:06:34.690Z,38.53
2018-05-16T13:09:01.240Z,40.20
2018-05-16T13:11:28.508Z,48.20
2018-05-16T13:13:56.378Z,40.08
2018-05-16T13:16:23.543Z,38.70
2018-05-16T13:18:50.030Z,39.10
2018-05-16T13:21:20.173Z,38.05
2018-05-16T13:23:46.730Z,39.17
2018-05-16T13:26:13.390Z,38.20
2018-05-16T13:28:39.871Z,37.05
2018-05-16T13:31:06.472Z,38.30
2018-05-16T13:33:34.729Z,38.38
2018-05-16T13:36:01.883Z,38.42
2018-05-16T13:38:29.455Z,38.43
2018-05-16T13:40:55.998Z,39.58
2018-05-16T13:43:26.100Z,38.47
2018-05-16T13:45:53.838Z,38.08
2018-05-16T13:48:21.904Z,38.35
2018-05-16T13:50:51.556Z,39.65
2018-05-16T13:53:20.536Z,38.97
2018-05-16T13:55:49.606Z,38.60
2018-05-16T13:58:16.140Z,38.67
2018-05-16T14:00:42.805Z,38.17
2018-05-16T14:03:09.247Z,38.75
2018-05-16T14:05:36.424Z,37.67
2018-05-16T14:08:03.661Z,37.45
2018-05-16T14:10:30.790Z,39.15
2018-05-16T14:12:57.206Z,39.20
2018-05-16T14:15:23.651Z,39.00
2018-05-16T14:17:50.839Z,39.27
2018-05-16T14:20:18.131Z,37.53
2018-05-16T14:22:45.411Z,37.92
2018-05-16T14:25:12.230Z,38.97
2018-05-16T14:27:38.726Z,38.00
2018-05-16T14:30:06.832Z,38.03
2018-05-16T14:32:34.198Z,37.50
2018-05-16T14:35:01.573Z,37.05
2018-05-16T14:37:28.137Z,37.17
2018-05-16T14:39:54.561Z,37.50
2018-05-16T14:42:21.048Z,37.33
2018-05-16T14:44:47.461Z,37.03
2018-05-16T14:47:13.884Z,36.85
2018-05-16T14:49:40.318Z,36.50
2018-05-16T14:52:07.112Z,34.97
2018-05-16T14:54:33.582Z,35.30
2018-05-16T14:57:00.156Z,35.10
2018-05-16T14:59:26.607Z,35.70
2018-05-16T15:01:53.208Z,36.47
2018-05-16T15:04:19.648Z,35.90
2018-05-16T15:06:48.164Z,35.40
2018-05-16T15:12:07.938Z,35.35
2018-05-16T15:14:34.434Z,36.58
2018-05-16T15:17:02.455Z,86.60
2018-05-16T15:19:28.851Z,39.38
2018-05-16T15:21:55.349Z,38.28
2018-05-16T15:24:22.457Z,36.72
2018-05-16T15:26:48.924Z,48.40
2018-05-16T15:29:15.377Z,38.47
2018-05-16T15:31:41.878Z,34.05
2018-05-16T15:34:09.152Z,36.85
2018-05-16T15:36:36.337Z,36.70
2018-05-16T15:39:02.982Z,35.08
2018-05-16T15:41:30.135Z,34.95
2018-05-16T15:43:57.433Z,31.48
2018-05-16T15:46:24.570Z,31.40
2018-05-16T15:48:51.065Z,30.30
2018-05-16T15:51:17.463Z,29.98
2018-05-16T15:53:43.885Z,29.60
2018-05-16T15:56:10.358Z,25.50
2018-05-16T15:58:37.334Z,24.30
2018-05-16T16:01:03.923Z,25.55
2018-05-16T16:03:30.417Z,24.85
2018-05-16T16:05:56.898Z,19.33
2018-05-16T16:08:23.382Z,62.03
2018-05-16T16:10:49.805Z,25.60
2018-05-16T16:13:16.246Z,21.37
2018-05-16T16:15:42.854Z,23.40
2018-05-16T16:18:09.297Z,25.53
2018-05-16T16:20:35.822Z,27.95
2018-05-16T16:23:02.473Z,29.40
2018-05-16T16:25:28.959Z,28.15
2018-05-16T16:27:55.415Z,32.25
2018-05-16T16:30:21.903Z,31.10
2018-05-16T16:32:48.372Z,29.90
2018-05-16T16:35:15.554Z,29.30
2018-05-16T16:37:42.028Z,30.13
2018-05-16T16:40:08.460Z,31.30
2018-05-16T16:42:35.028Z,28.77
2018-05-16T16:45:02.374Z,27.75
2018-05-16T16:47:30.359Z,28.55
2018-05-16T16:49:56.820Z,28.83
2018-05-16T16:52:23.285Z,27.23
2018-05-16T16:54:50.002Z,27.98
2018-05-16T16:57:16.706Z,26.42
2018-05-16T16:59:43.206Z,27.00
2018-05-16T17:02:09.658Z,25.67
2018-05-16T17:04:36.848Z,24.75
2018-05-16T17:07:03.358Z,23.58
2018-05-16T17:09:31.388Z,23.92
2018-05-16T17:11:57.745Z,21.33
2018-05-16T17:14:24.250Z,20.95
2018-05-16T17:16:50.695Z,21.67
2018-05-16T17:19:17.123Z,21.45
2018-05-16T17:21:43.589Z,19.90
2018-05-16T17:24:10.024Z,20.47
2018-05-16T17:26:36.498Z,19.73
2018-05-16T17:29:03.252Z,18.02
2018-05-16T17:31:29.901Z,16.83
2018-05-16T17:33:56.480Z,18.13
2018-05-16T17:36:22.904Z,19.73
2018-05-16T17:38:50.099Z,24.92
2018-05-16T17:41:17.464Z,22.15
2018-05-16T17:43:43.892Z,23.20
2018-05-16T17:46:10.595Z,27.80
2018-05-16T17:48:37.246Z,24.95
2018-05-16T17:51:04.226Z,24.58
2018-05-16T17:53:30.648Z,22.67
2018-05-16T17:55:57.795Z,23.70
2018-05-16T17:58:24.306Z,23.80
2018-05-16T18:00:51.573Z,21.03
2018-05-16T18:03:18.020Z,23.65
2018-05-16T18:05:45.250Z,23.95
2018-05-16T18:08:11.710Z,26.55
2018-05-16T18:10:38.134Z,25.45
2018-05-16T18:26:36.579Z,25.23
2018-05-16T18:29:03.073Z,29.23
2018-05-16T18:31:30.288Z,28.38
2018-05-16T18:33:56.770Z,28.62
2018-05-16T18:36:23.215Z,29.87
2018-05-16T18:38:49.692Z,27.20
2018-05-16T18:41:16.964Z,25.60
2018-05-16T18:43:44.265Z,24.50
2018-05-16T18:46:11.505Z,25.62
2018-05-16T18:48:37.975Z,25.77
2018-05-16T18:51:05.004Z,26.13
2018-05-16T18:53:32.042Z,24.60
2018-05-16T18:55:58.646Z,25.97
2018-05-16T18:58:25.149Z,25.93
2018-05-16T19:00:52.359Z,26.77
2018-05-16T19:03:19.563Z,28.05
2018-05-16T19:05:46.224Z,26.60
2018-05-16T19:08:13.125Z,26.60
2018-05-16T19:10:39.683Z,27.40
2018-05-16T19:13:06.844Z,26.92
2018-05-16T19:15:34.131Z,29.05
2018-05-16T19:18:00.666Z,29.27
2018-05-16T19:20:27.068Z,31.87
2018-05-16T19:22:53.536Z,31.13
2018-05-16T19:25:20.008Z,31.03
2018-05-16T19:27:46.469Z,30.20
2018-05-16T19:30:12.970Z,31.30
2018-05-16T19:32:40.135Z,30.55
2018-05-16T19:35:07.724Z,30.55
2018-05-16T19:37:34.998Z,28.83
2018-05-16T19:40:01.447Z,28.87
2018-05-16T19:42:28.658Z,29.63
2018-05-16T19:44:55.287Z,29.48
2018-05-16T19:47:21.769Z,29.90
2018-05-16T19:49:48.195Z,27.98
2018-05-16T19:52:15.991Z,28.62
2018-05-16T19:54:42.414Z,27.00
2018-05-16T19:57:10.444Z,27.90
2018-05-16T19:59:36.898Z,27.15
2018-05-16T20:02:03.448Z,26.40
2018-05-16T20:04:30.627Z,27.25
2018-05-16T20:06:57.189Z,27.58
2018-05-16T20:09:23.651Z,26.67
2018-05-16T20:11:50.074Z,26.00
2018-05-16T20:14:17.224Z,27.17
2018-05-16T20:16:43.829Z,25.70
2018-05-16T20:19:11.094Z,26.20
2018-05-16T20:21:38.256Z,27.20
2018-05-16T20:24:05.427Z,28.60
2018-05-16T20:26:32.716Z,27.73
2018-05-16T20:28:59.905Z,29.80
2018-05-16T20:31:26.368Z,29.37
2018-05-16T20:33:52.797Z,30.02
2018-05-16T20:36:19.964Z,30.05
2018-05-16T20:38:47.250Z,30.73
2018-05-16T20:41:13.680Z,32.72
2018-05-16T20:43:40.159Z,31.10
2018-05-16T20:46:07.362Z,31.33
2018-05-16T20:48:34.780Z,30.75
2018-05-16T20:51:01.369Z,30.92
2018-05-16T20:53:28.593Z,30.30
2018-05-16T20:55:55.097Z,31.15
2018-05-16T20:58:22.273Z,31.08
2018-05-16T21:00:49.465Z,29.65
2018-05-16T21:03:15.922Z,28.53
2018-05-16T21:05:42.402Z,27.17
2018-05-16T21:08:08.810Z,27.85
2018-05-16T21:10:35.982Z,27.37
2018-05-16T21:13:03.256Z,26.83
2018-05-16T21:15:30.441Z,28.53
2018-05-16T21:17:57.000Z,29.90
2018-05-16T21:20:23.533Z,28.27
2018-05-16T21:22:50.826Z,29.17
2018-05-16T21:25:17.385Z,31.90
2018-05-16T21:27:44.374Z,30.42
2018-05-16T21:30:10.857Z,30.10
2018-05-16T21:32:37.299Z,30.62
2018-05-16T21:35:03.812Z,30.23
2018-05-16T21:37:31.097Z,30.20
2018-05-16T21:39:57.575Z,28.30
2018-05-16T21:42:24.668Z,28.50
2018-05-16T21:44:51.104Z,28.50
2018-05-16T21:47:17.507Z,28.80
2018-05-16T21:49:44.047Z,25.95
2018-05-16T21:52:10.551Z,26.02
2018-05-16T21:54:38.225Z,24.35
2018-05-16T21:57:05.508Z,23.70
2018-05-16T21:59:32.700Z,24.10
2018-05-16T22:01:59.237Z,24.60
2018-05-16T22:04:26.515Z,24.02
2018-05-16T22:06:53.071Z,23.70
2018-05-16T22:09:20.190Z,23.30
2018-05-16T22:11:46.617Z,23.62
2018-05-16T22:14:13.420Z,24.17
2018-05-16T22:16:39.907Z,23.50
2018-05-16T22:19:07.087Z,22.87
2018-05-16T22:21:34.728Z,22.60
2018-05-16T22:24:01.186Z,23.70
2018-05-16T22:26:27.689Z,23.38
2018-05-16T22:28:54.884Z,22.50
2018-05-16T22:31:28.220Z,22.70
2018-05-16T22:34:00.647Z,21.92
2018-05-16T22:36:33.050Z,22.00
2018-05-16T22:39:06.106Z,20.92
2018-05-16T22:41:38.645Z,21.30
2018-05-16T22:44:24.862Z,22.50
2018-05-16T22:46:51.397Z,21.23
2018-05-16T22:49:17.778Z,21.73
2018-05-16T22:51:44.311Z,21.67
2018-05-16T22:54:10.713Z,21.85
2018-05-16T22:56:37.221Z,22.25
2018-05-16T22:59:04.186Z,21.27
2018-05-16T23:01:31.499Z,22.40
2018-05-16T23:03:58.360Z,21.70
2018-05-16T23:06:25.132Z,21.83
2018-05-16T23:08:51.610Z,21.27
2018-05-16T23:11:18.808Z,22.10
2018-05-16T23:13:46.032Z,20.75
2018-05-16T23:16:12.928Z,21.08
2018-05-16T23:18:40.387Z,21.25
2018-05-16T23:21:07.139Z,21.00
2018-05-16T23:23:33.534Z,21.58
2018-05-16T23:26:00.726Z,20.73
2018-05-16T23:28:27.292Z,21.48
2018-05-16T23:30:53.780Z,22.02
2018-05-16T23:33:20.545Z,21.17
2018-05-16T23:35:47.304Z,21.33
2018-05-16T23:38:14.104Z,21.42
2018-05-16T23:40:41.327Z,20.92
2018-05-16T23:43:08.097Z,21.70
2018-05-16T23:45:34.570Z,21.23
2018-05-16T23:48:01.092Z,20.48
2018-05-16T23:50:27.748Z,21.92
2018-05-16T23:52:54.169Z,21.10
2018-05-16T23:55:21.722Z,22.00
2018-05-16T23:57:49.703Z,22.20
